sensor_id;sensor_type;location;lat;lon;timestamp;temperature;humidity
24902;DHT22;31328;51.402;0.016;2022-09-09T00:03:44;16.10;99.90
24902;DHT22;31328;51.402;0.016;2022-09-09T00:06:28;16.10;99.90
24902;DHT22;31328;51.402;0.016;2022-09-09T00:09:04;16.10;99.90
24902;DHT22;31328;51.402;0.016;2022-09-09T00:12:00;16.10;99.90
24902;DHT22;31328;51.402;0.016;2022-09-09T00:14:45;16.20;99.90
24902;DHT22;31328;51.402;0.016;2022-09-09T00:17:47;16.20;99.90
24902;DHT22;31328;51.402;0.016;2022-09-09T00:20:29;16.20;99.90
24902;DHT22;31328;51.402;0.016;2022-09-09T00:23:12;16.20;99.90
24902;DHT22;31328;51.402;0.016;2022-09-09T00:25:57;16.20;99.90
24902;DHT22;31328;51.402;0.016;2022-09-09T00:28:27;16.20;99.90
24902;DHT22;31328;51.402;0.016;2022-09-09T00:31:07;16.20;99.90
24902;DHT22;31328;51.402;0.016;2022-09-09T00:33:38;16.20;99.90
24902;DHT22;31328;51.402;0.016;2022-09-09T00:36:12;16.10;99.90
24902;DHT22;31328;51.402;0.016;2022-09-09T00:38:47;16.20;99.90
24902;DHT22;31328;51.402;0.016;2022-09-09T00:43:57;16.10;99.90
24902;DHT22;31328;51.402;0.016;2022-09-09T00:57:16;16.10;99.90
24902;DHT22;31328;51.402;0.016;2022-09-09T00:59:50;16.10;99.90
24902;DHT22;31328;51.402;0.016;2022-09-09T01:02:30;16.10;99.90
24902;DHT22;31328;51.402;0.016;2022-09-09T01:05:05;16.10;99.90
24902;DHT22;31328;51.402;0.016;2022-09-09T01:07:33;16.10;99.90
24902;DHT22;31328;51.402;0.016;2022-09-09T01:10:07;16.10;99.90
24902;DHT22;31328;51.402;0.016;2022-09-09T01:12:42;16.10;99.90
24902;DHT22;31328;51.402;0.016;2022-09-09T01:15:25;16.10;99.90
24902;DHT22;31328;51.402;0.016;2022-09-09T01:20:47;16.10;99.90
24902;DHT22;31328;51.402;0.016;2022-09-09T01:26:38;16.10;99.90
24902;DHT22;31328;51.402;0.016;2022-09-09T01:29:14;16.10;99.90
24902;DHT22;31328;51.402;0.016;2022-09-09T01:34:19;16.10;99.90
24902;DHT22;31328;51.402;0.016;2022-09-09T01:39:19;16.20;99.90
24902;DHT22;31328;51.402;0.016;2022-09-09T01:41:53;16.10;99.90
24902;DHT22;31328;51.402;0.016;2022-09-09T01:44:20;16.10;99.90
24902;DHT22;31328;51.402;0.016;2022-09-09T01:46:46;16.10;99.90
24902;DHT22;31328;51.402;0.016;2022-09-09T01:49:17;16.10;99.90
24902;DHT22;31328;51.402;0.016;2022-09-09T01:51:46;16.10;99.90
24902;DHT22;31328;51.402;0.016;2022-09-09T01:54:15;16.10;99.90
24902;DHT22;31328;51.402;0.016;2022-09-09T01:56:47;16.10;99.90
24902;DHT22;31328;51.402;0.016;2022-09-09T02:02:39;16.10;99.90
24902;DHT22;31328;51.402;0.016;2022-09-09T02:07:50;16.10;99.90
24902;DHT22;31328;51.402;0.016;2022-09-09T02:11:19;16.10;99.90
24902;DHT22;31328;51.402;0.016;2022-09-09T02:13:32;16.10;99.90
24902;DHT22;31328;51.402;0.016;2022-09-09T02:16:12;16.10;99.90
24902;DHT22;31328;51.402;0.016;2022-09-09T02:18:49;16.10;99.90
24902;DHT22;31328;51.402;0.016;2022-09-09T02:21:20;16.10;99.90
24902;DHT22;31328;51.402;0.016;2022-09-09T02:23:49;16.10;99.90
24902;DHT22;31328;51.402;0.016;2022-09-09T02:26:19;16.10;99.90
24902;DHT22;31328;51.402;0.016;2022-09-09T02:28:52;16.10;99.90
24902;DHT22;31328;51.402;0.016;2022-09-09T02:31:22;16.10;99.90
24902;DHT22;31328;51.402;0.016;2022-09-09T02:33:58;16.10;99.90
24902;DHT22;31328;51.402;0.016;2022-09-09T02:36:29;16.10;99.90
24902;DHT22;31328;51.402;0.016;2022-09-09T02:38:57;16.00;99.90
24902;DHT22;31328;51.402;0.016;2022-09-09T02:41:31;16.00;99.90
24902;DHT22;31328;51.402;0.016;2022-09-09T02:43:59;16.00;99.90
24902;DHT22;31328;51.402;0.016;2022-09-09T02:49:02;16.00;99.90
24902;DHT22;31328;51.402;0.016;2022-09-09T02:51:53;16.00;99.90
24902;DHT22;31328;51.402;0.016;2022-09-09T02:54:30;16.00;99.90
24902;DHT22;31328;51.402;0.016;2022-09-09T02:57:21;16.00;99.90
24902;DHT22;31328;51.402;0.016;2022-09-09T02:59:50;16.00;99.90
24902;DHT22;31328;51.402;0.016;2022-09-09T03:02:18;16.00;99.90
24902;DHT22;31328;51.402;0.016;2022-09-09T03:04:49;16.00;99.90
24902;DHT22;31328;51.402;0.016;2022-09-09T03:07:19;16.00;99.90
24902;DHT22;31328;51.402;0.016;2022-09-09T03:09:46;16.00;99.90
24902;DHT22;31328;51.402;0.016;2022-09-09T03:12:13;16.00;99.90
24902;DHT22;31328;51.402;0.016;2022-09-09T03:14:40;16.00;99.90
24902;DHT22;31328;51.402;0.016;2022-09-09T03:17:06;16.00;99.90
24902;DHT22;31328;51.402;0.016;2022-09-09T03:19:38;16.00;99.90
24902;DHT22;31328;51.402;0.016;2022-09-09T03:22:10;16.00;99.90
24902;DHT22;31328;51.402;0.016;2022-09-09T03:24:40;16.00;99.90
24902;DHT22;31328;51.402;0.016;2022-09-09T03:27:06;16.00;99.90
24902;DHT22;31328;51.402;0.016;2022-09-09T03:29:35;16.10;99.90
24902;DHT22;31328;51.402;0.016;2022-09-09T03:32:04;16.00;99.90
24902;DHT22;31328;51.402;0.016;2022-09-09T03:34:30;16.10;99.90
24902;DHT22;31328;51.402;0.016;2022-09-09T03:36:58;16.10;99.90
24902;DHT22;31328;51.402;0.016;2022-09-09T03:39:25;16.10;99.90
24902;DHT22;31328;51.402;0.016;2022-09-09T03:41:52;16.10;99.90
24902;DHT22;31328;51.402;0.016;2022-09-09T03:44:18;16.10;99.90
24902;DHT22;31328;51.402;0.016;2022-09-09T03:46:46;16.10;99.90
24902;DHT22;31328;51.402;0.016;2022-09-09T03:49:14;16.10;99.90
24902;DHT22;31328;51.402;0.016;2022-09-09T03:51:41;16.10;99.90
24902;DHT22;31328;51.402;0.016;2022-09-09T03:54:10;16.10;99.90
24902;DHT22;31328;51.402;0.016;2022-09-09T03:56:37;16.10;99.90
24902;DHT22;31328;51.402;0.016;2022-09-09T03:59:03;16.10;99.90
24902;DHT22;31328;51.402;0.016;2022-09-09T04:01:30;16.10;99.90
24902;DHT22;31328;51.402;0.016;2022-09-09T04:03:56;16.10;99.90
24902;DHT22;31328;51.402;0.016;2022-09-09T04:06:25;16.10;99.90
24902;DHT22;31328;51.402;0.016;2022-09-09T04:08:52;16.10;99.90
24902;DHT22;31328;51.402;0.016;2022-09-09T04:11:19;16.20;99.90
24902;DHT22;31328;51.402;0.016;2022-09-09T04:13:48;16.10;99.90
24902;DHT22;31328;51.402;0.016;2022-09-09T04:16:17;16.10;99.90
24902;DHT22;31328;51.402;0.016;2022-09-09T04:18:43;16.20;99.90
24902;DHT22;31328;51.402;0.016;2022-09-09T04:21:10;16.10;99.90
24902;DHT22;31328;51.402;0.016;2022-09-09T04:23:39;16.10;99.90
24902;DHT22;31328;51.402;0.016;2022-09-09T04:26:05;16.10;99.90
24902;DHT22;31328;51.402;0.016;2022-09-09T04:28:35;16.10;99.90
24902;DHT22;31328;51.402;0.016;2022-09-09T04:31:10;16.20;99.90
24902;DHT22;31328;51.402;0.016;2022-09-09T04:33:40;16.10;99.90
24902;DHT22;31328;51.402;0.016;2022-09-09T04:36:07;16.20;99.90
24902;DHT22;31328;51.402;0.016;2022-09-09T04:38:34;16.20;99.90
24902;DHT22;31328;51.402;0.016;2022-09-09T04:41:02;16.20;99.90
24902;DHT22;31328;51.402;0.016;2022-09-09T04:43:28;16.20;99.90
24902;DHT22;31328;51.402;0.016;2022-09-09T04:45:57;16.20;99.90
24902;DHT22;31328;51.402;0.016;2022-09-09T04:48:25;16.20;99.90
24902;DHT22;31328;51.402;0.016;2022-09-09T04:50:58;16.20;99.90
24902;DHT22;31328;51.402;0.016;2022-09-09T04:53:26;16.20;99.90
24902;DHT22;31328;51.402;0.016;2022-09-09T04:56:10;16.20;99.90
24902;DHT22;31328;51.402;0.016;2022-09-09T04:58:41;16.20;99.90
24902;DHT22;31328;51.402;0.016;2022-09-09T05:01:10;16.20;99.90
24902;DHT22;31328;51.402;0.016;2022-09-09T05:03:39;16.20;99.90
24902;DHT22;31328;51.402;0.016;2022-09-09T05:06:10;16.20;99.90
24902;DHT22;31328;51.402;0.016;2022-09-09T05:08:38;16.10;99.90
24902;DHT22;31328;51.402;0.016;2022-09-09T05:11:26;16.10;99.90
24902;DHT22;31328;51.402;0.016;2022-09-09T05:13:58;16.20;99.90
24902;DHT22;31328;51.402;0.016;2022-09-09T05:16:24;16.10;99.90
24902;DHT22;31328;51.402;0.016;2022-09-09T05:18:51;16.20;99.90
24902;DHT22;31328;51.402;0.016;2022-09-09T05:21:21;16.10;99.90
24902;DHT22;31328;51.402;0.016;2022-09-09T05:23:48;16.20;99.90
24902;DHT22;31328;51.402;0.016;2022-09-09T05:26:17;16.10;99.90
24902;DHT22;31328;51.402;0.016;2022-09-09T05:28:46;16.20;99.90
24902;DHT22;31328;51.402;0.016;2022-09-09T05:31:14;16.10;99.90
24902;DHT22;31328;51.402;0.016;2022-09-09T05:33:45;16.10;99.90
24902;DHT22;31328;51.402;0.016;2022-09-09T05:36:17;16.10;99.90
24902;DHT22;31328;51.402;0.016;2022-09-09T05:38:46;16.10;99.90
24902;DHT22;31328;51.402;0.016;2022-09-09T05:41:14;16.10;99.90
24902;DHT22;31328;51.402;0.016;2022-09-09T05:43:44;16.20;99.90
24902;DHT22;31328;51.402;0.016;2022-09-09T05:46:21;16.10;99.90
24902;DHT22;31328;51.402;0.016;2022-09-09T05:48:51;16.20;99.90
24902;DHT22;31328;51.402;0.016;2022-09-09T05:51:21;16.10;99.90
24902;DHT22;31328;51.402;0.016;2022-09-09T05:53:49;16.10;99.90
24902;DHT22;31328;51.402;0.016;2022-09-09T05:56:21;16.10;99.90
24902;DHT22;31328;51.402;0.016;2022-09-09T05:58:49;16.10;99.90
24902;DHT22;31328;51.402;0.016;2022-09-09T06:01:32;16.10;99.90
24902;DHT22;31328;51.402;0.016;2022-09-09T06:04:01;16.10;99.90
24902;DHT22;31328;51.402;0.016;2022-09-09T06:06:33;16.10;99.90
24902;DHT22;31328;51.402;0.016;2022-09-09T06:09:04;16.10;99.90
24902;DHT22;31328;51.402;0.016;2022-09-09T06:11:38;16.10;99.90
24902;DHT22;31328;51.402;0.016;2022-09-09T06:14:05;16.10;99.90
24902;DHT22;31328;51.402;0.016;2022-09-09T06:16:33;16.10;99.90
24902;DHT22;31328;51.402;0.016;2022-09-09T06:19:00;16.10;99.90
24902;DHT22;31328;51.402;0.016;2022-09-09T06:21:31;16.20;99.90
24902;DHT22;31328;51.402;0.016;2022-09-09T06:24:00;16.10;99.90
24902;DHT22;31328;51.402;0.016;2022-09-09T06:26:32;16.20;99.90
24902;DHT22;31328;51.402;0.016;2022-09-09T06:29:02;16.20;99.90
24902;DHT22;31328;51.402;0.016;2022-09-09T06:31:32;16.20;99.90
24902;DHT22;31328;51.402;0.016;2022-09-09T06:34:05;16.20;99.90
24902;DHT22;31328;51.402;0.016;2022-09-09T06:36:34;16.20;99.90
24902;DHT22;31328;51.402;0.016;2022-09-09T06:39:01;16.20;99.90
24902;DHT22;31328;51.402;0.016;2022-09-09T06:41:30;16.20;99.90
24902;DHT22;31328;51.402;0.016;2022-09-09T06:43:57;16.30;99.90
24902;DHT22;31328;51.402;0.016;2022-09-09T06:46:33;16.20;99.90
24902;DHT22;31328;51.402;0.016;2022-09-09T06:49:01;16.20;99.90
24902;DHT22;31328;51.402;0.016;2022-09-09T06:51:30;16.30;99.90
24902;DHT22;31328;51.402;0.016;2022-09-09T06:54:01;16.30;99.90
24902;DHT22;31328;51.402;0.016;2022-09-09T06:56:34;16.30;99.90
24902;DHT22;31328;51.402;0.016;2022-09-09T06:59:09;16.30;99.90
24902;DHT22;31328;51.402;0.016;2022-09-09T07:01:38;16.30;99.90
24902;DHT22;31328;51.402;0.016;2022-09-09T07:04:09;16.30;99.90
24902;DHT22;31328;51.402;0.016;2022-09-09T07:06:45;16.30;99.90
24902;DHT22;31328;51.402;0.016;2022-09-09T07:09:16;16.30;99.90
24902;DHT22;31328;51.402;0.016;2022-09-09T07:11:47;16.30;99.90
24902;DHT22;31328;51.402;0.016;2022-09-09T07:14:15;16.30;99.90
24902;DHT22;31328;51.402;0.016;2022-09-09T07:16:46;16.30;99.90
24902;DHT22;31328;51.402;0.016;2022-09-09T07:19:14;16.40;99.90
24902;DHT22;31328;51.402;0.016;2022-09-09T07:21:42;16.40;99.90
24902;DHT22;31328;51.402;0.016;2022-09-09T07:24:11;16.40;99.90
24902;DHT22;31328;51.402;0.016;2022-09-09T07:26:39;16.50;99.90
24902;DHT22;31328;51.402;0.016;2022-09-09T07:29:08;16.50;99.90
24902;DHT22;31328;51.402;0.016;2022-09-09T07:31:36;16.50;99.90
24902;DHT22;31328;51.402;0.016;2022-09-09T07:34:06;16.60;99.90
24902;DHT22;31328;51.402;0.016;2022-09-09T07:36:36;16.60;99.90
24902;DHT22;31328;51.402;0.016;2022-09-09T07:39:07;16.60;99.90
24902;DHT22;31328;51.402;0.016;2022-09-09T07:41:40;16.70;99.90
24902;DHT22;31328;51.402;0.016;2022-09-09T07:44:13;16.60;99.90
24902;DHT22;31328;51.402;0.016;2022-09-09T07:46:41;16.70;99.90
24902;DHT22;31328;51.402;0.016;2022-09-09T07:49:10;16.70;99.90
24902;DHT22;31328;51.402;0.016;2022-09-09T07:51:39;16.70;99.90
24902;DHT22;31328;51.402;0.016;2022-09-09T07:54:09;16.80;99.90
24902;DHT22;31328;51.402;0.016;2022-09-09T07:56:40;16.80;99.90
24902;DHT22;31328;51.402;0.016;2022-09-09T07:59:07;16.80;99.90
24902;DHT22;31328;51.402;0.016;2022-09-09T08:01:38;16.80;99.90
24902;DHT22;31328;51.402;0.016;2022-09-09T08:04:09;16.90;99.90
24902;DHT22;31328;51.402;0.016;2022-09-09T08:06:40;16.90;99.90
24902;DHT22;31328;51.402;0.016;2022-09-09T08:09:09;16.90;99.90
24902;DHT22;31328;51.402;0.016;2022-09-09T08:11:39;17.00;99.90
24902;DHT22;31328;51.402;0.016;2022-09-09T08:14:07;17.00;99.90
24902;DHT22;31328;51.402;0.016;2022-09-09T08:16:38;17.00;99.90
24902;DHT22;31328;51.402;0.016;2022-09-09T08:19:07;17.00;99.90
24902;DHT22;31328;51.402;0.016;2022-09-09T08:21:36;17.00;99.90
24902;DHT22;31328;51.402;0.016;2022-09-09T08:24:04;17.00;99.90
24902;DHT22;31328;51.402;0.016;2022-09-09T08:26:39;17.00;99.90
24902;DHT22;31328;51.402;0.016;2022-09-09T08:29:10;17.10;99.90
24902;DHT22;31328;51.402;0.016;2022-09-09T08:31:42;17.10;99.90
24902;DHT22;31328;51.402;0.016;2022-09-09T08:34:09;17.20;99.90
24902;DHT22;31328;51.402;0.016;2022-09-09T08:36:42;17.20;99.90
24902;DHT22;31328;51.402;0.016;2022-09-09T08:39:12;17.20;99.90
24902;DHT22;31328;51.402;0.016;2022-09-09T08:52:39;17.40;99.90
24902;DHT22;31328;51.402;0.016;2022-09-09T08:57:58;17.50;99.90
24902;DHT22;31328;51.402;0.016;2022-09-09T09:00:44;17.50;99.90
24902;DHT22;31328;51.402;0.016;2022-09-09T09:06:01;17.60;99.90
24902;DHT22;31328;51.402;0.016;2022-09-09T09:08:46;17.50;99.90
24902;DHT22;31328;51.402;0.016;2022-09-09T09:11:14;17.50;99.90
24902;DHT22;31328;51.402;0.016;2022-09-09T09:18:56;17.40;99.90
24902;DHT22;31328;51.402;0.016;2022-09-09T09:24:20;17.30;99.90
24902;DHT22;31328;51.402;0.016;2022-09-09T09:26:47;17.30;99.90
24902;DHT22;31328;51.402;0.016;2022-09-09T09:29:18;17.20;99.90
24902;DHT22;31328;51.402;0.016;2022-09-09T09:31:51;17.20;99.90
24902;DHT22;31328;51.402;0.016;2022-09-09T09:34:18;17.20;99.90
24902;DHT22;31328;51.402;0.016;2022-09-09T09:37:00;17.20;99.90
24902;DHT22;31328;51.402;0.016;2022-09-09T09:39:33;17.20;99.90
24902;DHT22;31328;51.402;0.016;2022-09-09T09:42:14;17.30;99.90
24902;DHT22;31328;51.402;0.016;2022-09-09T09:44:45;17.40;99.90
24902;DHT22;31328;51.402;0.016;2022-09-09T09:47:22;17.50;99.90
24902;DHT22;31328;51.402;0.016;2022-09-09T09:50:00;17.60;99.90
24902;DHT22;31328;51.402;0.016;2022-09-09T09:52:33;17.60;99.90
24902;DHT22;31328;51.402;0.016;2022-09-09T09:55:04;17.70;99.90
24902;DHT22;31328;51.402;0.016;2022-09-09T09:57:33;17.70;99.90
24902;DHT22;31328;51.402;0.016;2022-09-09T10:00:18;17.80;99.90
24902;DHT22;31328;51.402;0.016;2022-09-09T10:02:51;17.90;99.90
24902;DHT22;31328;51.402;0.016;2022-09-09T10:05:25;17.90;99.90
24902;DHT22;31328;51.402;0.016;2022-09-09T10:08:11;17.90;99.90
24902;DHT22;31328;51.402;0.016;2022-09-09T10:14:16;18.10;99.90
24902;DHT22;31328;51.402;0.016;2022-09-09T10:17:27;18.20;99.90
24902;DHT22;31328;51.402;0.016;2022-09-09T10:22:51;18.20;99.90
24902;DHT22;31328;51.402;0.016;2022-09-09T10:25:38;18.30;99.90
24902;DHT22;31328;51.402;0.016;2022-09-09T10:36:21;18.40;99.90
24902;DHT22;31328;51.402;0.016;2022-09-09T10:39:19;18.40;99.90
24902;DHT22;31328;51.402;0.016;2022-09-09T10:42:00;18.50;99.90
24902;DHT22;31328;51.402;0.016;2022-09-09T10:44:50;18.50;99.90
24902;DHT22;31328;51.402;0.016;2022-09-09T10:55:57;18.60;99.90
24902;DHT22;31328;51.402;0.016;2022-09-09T10:58:35;18.60;99.90
24902;DHT22;31328;51.402;0.016;2022-09-09T11:01:16;18.60;99.90
24902;DHT22;31328;51.402;0.016;2022-09-09T11:03:50;18.60;99.90
24902;DHT22;31328;51.402;0.016;2022-09-09T11:06:20;18.70;99.90
24902;DHT22;31328;51.402;0.016;2022-09-09T11:08:48;18.60;99.90
24902;DHT22;31328;51.402;0.016;2022-09-09T11:11:21;18.60;99.90
24902;DHT22;31328;51.402;0.016;2022-09-09T11:14:36;18.60;99.90
24902;DHT22;31328;51.402;0.016;2022-09-09T11:16:48;18.60;99.90
24902;DHT22;31328;51.402;0.016;2022-09-09T11:21:52;18.60;99.90
24902;DHT22;31328;51.402;0.016;2022-09-09T11:24:38;18.60;99.90
24902;DHT22;31328;51.402;0.016;2022-09-09T11:27:08;18.50;99.90
24902;DHT22;31328;51.402;0.016;2022-09-09T11:33:01;18.50;99.90
24902;DHT22;31328;51.402;0.016;2022-09-09T11:40:37;18.40;99.90
24902;DHT22;31328;51.402;0.016;2022-09-09T11:43:40;18.40;99.90
24902;DHT22;31328;51.402;0.016;2022-09-09T11:46:08;18.40;99.90
24902;DHT22;31328;51.402;0.016;2022-09-09T11:48:40;18.40;99.90
24902;DHT22;31328;51.402;0.016;2022-09-09T11:53:51;18.50;99.90
24902;DHT22;31328;51.402;0.016;2022-09-09T11:56:45;18.50;99.90
24902;DHT22;31328;51.402;0.016;2022-09-09T11:59:28;18.50;99.90
24902;DHT22;31328;51.402;0.016;2022-09-09T12:02:02;18.50;99.90
24902;DHT22;31328;51.402;0.016;2022-09-09T12:05:16;18.50;99.90
24902;DHT22;31328;51.402;0.016;2022-09-09T12:07:50;18.50;99.90
24902;DHT22;31328;51.402;0.016;2022-09-09T12:10:30;18.50;99.90
24902;DHT22;31328;51.402;0.016;2022-09-09T12:13:18;18.50;99.90
24902;DHT22;31328;51.402;0.016;2022-09-09T12:15:56;18.50;99.90
24902;DHT22;31328;51.402;0.016;2022-09-09T12:18:37;18.60;99.90
24902;DHT22;31328;51.402;0.016;2022-09-09T12:24:10;18.90;99.90
24902;DHT22;31328;51.402;0.016;2022-09-09T12:26:57;18.90;99.90
24902;DHT22;31328;51.402;0.016;2022-09-09T12:32:22;18.90;99.90
24902;DHT22;31328;51.402;0.016;2022-09-09T12:40:19;19.00;99.90
24902;DHT22;31328;51.402;0.016;2022-09-09T12:42:47;19.10;99.90
24902;DHT22;31328;51.402;0.016;2022-09-09T12:45:21;19.10;99.90
24902;DHT22;31328;51.402;0.016;2022-09-09T12:50:27;19.30;99.90
24902;DHT22;31328;51.402;0.016;2022-09-09T12:53:01;19.40;99.90
24902;DHT22;31328;51.402;0.016;2022-09-09T12:55:34;19.40;99.90
24902;DHT22;31328;51.402;0.016;2022-09-09T12:58:02;19.50;99.90
24902;DHT22;31328;51.402;0.016;2022-09-09T13:00:33;19.50;99.90
24902;DHT22;31328;51.402;0.016;2022-09-09T13:03:17;19.60;99.90
24902;DHT22;31328;51.402;0.016;2022-09-09T13:05:44;19.70;99.90
24902;DHT22;31328;51.402;0.016;2022-09-09T13:08:14;19.80;99.90
24902;DHT22;31328;51.402;0.016;2022-09-09T13:11:02;19.90;99.90
24902;DHT22;31328;51.402;0.016;2022-09-09T13:13:36;20.00;99.70
24902;DHT22;31328;51.402;0.016;2022-09-09T13:16:03;20.00;99.40
24902;DHT22;31328;51.402;0.016;2022-09-09T13:18:39;20.10;99.30
24902;DHT22;31328;51.402;0.016;2022-09-09T13:21:06;20.10;99.20
24902;DHT22;31328;51.402;0.016;2022-09-09T13:23:35;20.20;99.10
24902;DHT22;31328;51.402;0.016;2022-09-09T13:26:04;20.30;98.90
24902;DHT22;31328;51.402;0.016;2022-09-09T13:28:32;20.40;98.60
24902;DHT22;31328;51.402;0.016;2022-09-09T13:31:04;20.50;98.20
24902;DHT22;31328;51.402;0.016;2022-09-09T13:33:37;20.50;98.00
24902;DHT22;31328;51.402;0.016;2022-09-09T13:36:08;20.50;97.90
24902;DHT22;31328;51.402;0.016;2022-09-09T13:41:23;20.50;97.60
24902;DHT22;31328;51.402;0.016;2022-09-09T13:43:50;20.40;97.60
24902;DHT22;31328;51.402;0.016;2022-09-09T13:46:38;20.40;97.50
24902;DHT22;31328;51.402;0.016;2022-09-09T13:51:43;20.40;97.40
24902;DHT22;31328;51.402;0.016;2022-09-09T13:54:13;20.40;97.20
24902;DHT22;31328;51.402;0.016;2022-09-09T13:56:40;20.40;97.20
24902;DHT22;31328;51.402;0.016;2022-09-09T13:59:15;20.40;97.20
24902;DHT22;31328;51.402;0.016;2022-09-09T14:01:42;20.40;96.90
24902;DHT22;31328;51.402;0.016;2022-09-09T14:04:09;20.40;96.90
24902;DHT22;31328;51.402;0.016;2022-09-09T14:06:36;20.40;96.80
24902;DHT22;31328;51.402;0.016;2022-09-09T14:09:06;20.30;96.90
24902;DHT22;31328;51.402;0.016;2022-09-09T14:11:33;20.40;96.90
24902;DHT22;31328;51.402;0.016;2022-09-09T14:13:59;20.40;96.70
24902;DHT22;31328;51.402;0.016;2022-09-09T14:16:27;20.40;96.50
24902;DHT22;31328;51.402;0.016;2022-09-09T14:18:54;20.40;96.50
24902;DHT22;31328;51.402;0.016;2022-09-09T14:21:23;20.50;96.40
24902;DHT22;31328;51.402;0.016;2022-09-09T14:23:49;20.50;96.50
24902;DHT22;31328;51.402;0.016;2022-09-09T14:26:16;20.70;96.40
24902;DHT22;31328;51.402;0.016;2022-09-09T14:28:42;20.80;96.20
24902;DHT22;31328;51.402;0.016;2022-09-09T14:31:09;20.80;96.00
24902;DHT22;31328;51.402;0.016;2022-09-09T14:33:36;20.90;95.90
24902;DHT22;31328;51.402;0.016;2022-09-09T14:36:03;20.90;95.90
24902;DHT22;31328;51.402;0.016;2022-09-09T14:38:32;20.90;95.70
24902;DHT22;31328;51.402;0.016;2022-09-09T14:41:00;21.00;95.60
24902;DHT22;31328;51.402;0.016;2022-09-09T14:43:27;21.00;95.50
24902;DHT22;31328;51.402;0.016;2022-09-09T14:45:53;21.10;95.40
24902;DHT22;31328;51.402;0.016;2022-09-09T14:48:20;21.10;95.30
24902;DHT22;31328;51.402;0.016;2022-09-09T14:50:46;21.10;95.20
24902;DHT22;31328;51.402;0.016;2022-09-09T14:53:12;21.00;95.10
24902;DHT22;31328;51.402;0.016;2022-09-09T14:55:39;21.00;95.10
24902;DHT22;31328;51.402;0.016;2022-09-09T14:58:05;20.90;95.40
24902;DHT22;31328;51.402;0.016;2022-09-09T15:00:32;20.90;95.00
24902;DHT22;31328;51.402;0.016;2022-09-09T15:02:58;20.80;95.10
24902;DHT22;31328;51.402;0.016;2022-09-09T15:05:25;20.80;95.20
24902;DHT22;31328;51.402;0.016;2022-09-09T15:07:51;20.80;95.20
24902;DHT22;31328;51.402;0.016;2022-09-09T15:10:17;20.70;95.10
24902;DHT22;31328;51.402;0.016;2022-09-09T15:12:44;20.60;95.10
24902;DHT22;31328;51.402;0.016;2022-09-09T15:15:10;20.60;95.20
24902;DHT22;31328;51.402;0.016;2022-09-09T15:17:38;20.50;95.10
24902;DHT22;31328;51.402;0.016;2022-09-09T15:20:05;20.40;95.10
24902;DHT22;31328;51.402;0.016;2022-09-09T15:22:32;20.30;95.00
24902;DHT22;31328;51.402;0.016;2022-09-09T15:24:59;20.20;95.00
24902;DHT22;31328;51.402;0.016;2022-09-09T15:27:26;20.20;95.20
24902;DHT22;31328;51.402;0.016;2022-09-09T15:29:52;20.10;95.30
24902;DHT22;31328;51.402;0.016;2022-09-09T15:32:18;20.00;95.50
24902;DHT22;31328;51.402;0.016;2022-09-09T15:34:45;20.00;95.60
24902;DHT22;31328;51.402;0.016;2022-09-09T15:37:12;19.90;95.60
24902;DHT22;31328;51.402;0.016;2022-09-09T15:39:41;19.90;95.60
24902;DHT22;31328;51.402;0.016;2022-09-09T15:42:07;19.90;95.60
24902;DHT22;31328;51.402;0.016;2022-09-09T15:44:41;19.80;95.60
24902;DHT22;31328;51.402;0.016;2022-09-09T15:47:11;19.80;95.70
24902;DHT22;31328;51.402;0.016;2022-09-09T15:49:38;19.70;95.80
24902;DHT22;31328;51.402;0.016;2022-09-09T15:52:05;19.60;96.10
24902;DHT22;31328;51.402;0.016;2022-09-09T15:54:34;19.50;96.50
24902;DHT22;31328;51.402;0.016;2022-09-09T15:57:03;19.40;96.80
24902;DHT22;31328;51.402;0.016;2022-09-09T15:59:31;19.30;97.30
24902;DHT22;31328;51.402;0.016;2022-09-09T16:01:58;19.10;97.50
24902;DHT22;31328;51.402;0.016;2022-09-09T16:04:26;19.00;97.90
24902;DHT22;31328;51.402;0.016;2022-09-09T16:06:55;18.80;98.30
24902;DHT22;31328;51.402;0.016;2022-09-09T16:09:22;18.60;98.60
24902;DHT22;31328;51.402;0.016;2022-09-09T16:11:48;18.50;98.90
24902;DHT22;31328;51.402;0.016;2022-09-09T16:14:15;18.40;99.20
24902;DHT22;31328;51.402;0.016;2022-09-09T16:16:42;18.20;99.30
24902;DHT22;31328;51.402;0.016;2022-09-09T16:19:10;18.10;99.40
24902;DHT22;31328;51.402;0.016;2022-09-09T16:21:45;18.00;99.50
24902;DHT22;31328;51.402;0.016;2022-09-09T16:24:13;17.90;99.80
24902;DHT22;31328;51.402;0.016;2022-09-09T16:26:46;17.90;99.90
24902;DHT22;31328;51.402;0.016;2022-09-09T16:29:14;17.90;99.90
24902;DHT22;31328;51.402;0.016;2022-09-09T16:31:41;17.80;99.90
24902;DHT22;31328;51.402;0.016;2022-09-09T16:34:08;17.80;99.90
24902;DHT22;31328;51.402;0.016;2022-09-09T16:36:37;17.80;99.90
24902;DHT22;31328;51.402;0.016;2022-09-09T16:39:07;17.80;99.90
24902;DHT22;31328;51.402;0.016;2022-09-09T16:41:35;17.80;99.90
24902;DHT22;31328;51.402;0.016;2022-09-09T16:44:04;17.80;99.90
24902;DHT22;31328;51.402;0.016;2022-09-09T16:46:36;17.80;99.90
24902;DHT22;31328;51.402;0.016;2022-09-09T16:49:07;17.80;99.90
24902;DHT22;31328;51.402;0.016;2022-09-09T16:51:45;17.80;99.90
24902;DHT22;31328;51.402;0.016;2022-09-09T16:54:14;17.80;99.90
24902;DHT22;31328;51.402;0.016;2022-09-09T16:56:43;17.80;99.90
24902;DHT22;31328;51.402;0.016;2022-09-09T16:59:27;17.80;99.90
24902;DHT22;31328;51.402;0.016;2022-09-09T17:01:54;17.90;99.90
24902;DHT22;31328;51.402;0.016;2022-09-09T17:04:26;17.90;99.90
24902;DHT22;31328;51.402;0.016;2022-09-09T17:06:55;17.90;99.90
24902;DHT22;31328;51.402;0.016;2022-09-09T17:09:22;17.90;99.90
24902;DHT22;31328;51.402;0.016;2022-09-09T17:11:50;17.90;99.90
24902;DHT22;31328;51.402;0.016;2022-09-09T17:14:19;18.00;99.90
24902;DHT22;31328;51.402;0.016;2022-09-09T17:16:45;18.00;99.90
24902;DHT22;31328;51.402;0.016;2022-09-09T17:19:13;18.00;99.90
24902;DHT22;31328;51.402;0.016;2022-09-09T17:21:40;18.00;99.90
24902;DHT22;31328;51.402;0.016;2022-09-09T17:24:06;18.10;99.90
24902;DHT22;31328;51.402;0.016;2022-09-09T17:26:33;18.10;99.90
24902;DHT22;31328;51.402;0.016;2022-09-09T17:29:01;18.10;99.90
24902;DHT22;31328;51.402;0.016;2022-09-09T17:31:29;18.20;99.90
24902;DHT22;31328;51.402;0.016;2022-09-09T17:33:56;18.20;99.90
24902;DHT22;31328;51.402;0.016;2022-09-09T17:36:31;18.20;99.90
24902;DHT22;31328;51.402;0.016;2022-09-09T17:38:58;18.20;99.90
24902;DHT22;31328;51.402;0.016;2022-09-09T17:41:31;18.10;99.90
24902;DHT22;31328;51.402;0.016;2022-09-09T17:43:58;18.10;99.90
24902;DHT22;31328;51.402;0.016;2022-09-09T17:46:27;18.10;99.90
24902;DHT22;31328;51.402;0.016;2022-09-09T17:48:59;18.00;99.90
24902;DHT22;31328;51.402;0.016;2022-09-09T17:51:28;18.00;99.90
24902;DHT22;31328;51.402;0.016;2022-09-09T17:54:04;18.00;99.90